Peterborough Airport
CYPQ : now visible

Airfield :











YOU CAN JOIN US ON...

 
LOGIN :

Register | Disclaimer

   EN    FR    IT 

 









Legend :    VFR   Marginal VFR   IFR   Intensive IFR   Very Intensive IFR
Visi :
Ceiling :
>= 8 km
>= 3000ft
5 to 8 km
1000 to 3000 ft
1500m to 5 km
500 to 1000 ft
800 to 1500m
200 to 500 ft
< 800m
< 200 ft
Symbols :   Thunderstorms  Fog  Heavy snow  Heavy precipitations  Wind > 20 kt






- Airport Elevation : 628 ft
- IATA code : YPQ


CYPQ - Peterborough

CURRENT METAR :
  • 190710Z AUTO 00000KT 9SM -SN BKN019 BKN085 OVC120 M06/M07 A2991 RMK SLP139

EXPIRED METARs :
  • 190701Z AUTO 00000KT 9SM -SN SCT090 BKN120 OVC140 M07/M07 A2991 RMK SLP139
  • 190601Z AUTO 00000KT -SN FEW049 SCT080 BKN100 OVC120 M07/M08 A2990 RMK WX MISG VIS MISG SLP139
  • 190545Z AUTO 00000KT 9SM -SN FEW049 OVC080 M07/M08 A2991 RMK SLP139
  • 190529Z AUTO 00000KT 9SM OVC080 M07/M08 A2991 RMK SLP139
  • 190500Z AUTO 00000KT 9SM -SN BKN041 OVC090 M08/M08 A2991 RMK SLP140

Expired Forecast.
CZYZ FIR / North America



MET'MAP, your aeronautical weather chart ! - Copyright ORBIFLY December 2007 - Disclaimer

ORBIFLY MET'MAP TEAM :

Programming & Development : Alexandra Zaïnal
Concept & original design : Baudouin d'Aumeries
Assistance for programming : Marc-Olivier Méhu
Technical & hardware support : Manuel Goepfert

Contact : metmap@orbifly.com




SOURCES & CREDITS :

   NOAA       Earth
Advisory